Chino Hills, CA

3:06 AM PST on December 21, 2014 (GMT -0800)
Brackett | Change Station
CLOSE
Current Station
Airport
Location: La Verne,
Elevation: 1010 ft
Nearby Weather Stations

Elev 1010 ft 34.09 °N, 117.78 °W | Updated 6 hours ago

Fog
Fog
46 °F
Feels Like 46 °F
N
2
Wind Variable Wind from ENE
Gusts 2 mph

Today
High -- | Low -- °F
--% Chance of Precip.
Yesterday
High -- | Low -- °F
Precip. -- in
6:52 AM 4:45 PM
Waning Crescent, 0% visible
Pressure 30.19 in
Visibility 10.0 miles
Clouds Few 2200 ft
Scattered Clouds 3100 ft
Dew Point 46 °F
Humidity 96%
Rainfall 0.00 in
Snow Depth Not available.
UV 0 out of 12
Pollen 4.00 out of 12
Air Quality Not available.
Flu Activity Not available.
METAR KPOC 210447Z 00000KT 10SM FEW022 SCT031 09/08 A3019 RMK LAST

More Conditions Fewer Conditions

Pressure 30.19 in
Visibility 10.0 miles
Clouds Few 2200 ft
Scattered Clouds 3100 ft
Dew Point 46 °F
Humidity 96%
Rainfall 0.00 in
Snow Depth Not available.
UV 0 out of 12
Pollen 4.00 out of 12
Air Quality Not available.
Flu Activity Not available.
METAR KPOC 210447Z 00000KT 10SM FEW022 SCT031 09/08 A3019 RMK LAST

More Conditions Fewer Conditions

10-Day Weather Forecast

Almanac

Astronomy

Dec. 21, 2014 Rise Set
Actual Time
Civil Twilight
Nautical Twilight
Astronomical Twilight
Moon
Length of Visible Light
Length of Day
Tomorrow will be .
, % of the Moon is Illuminated

Today's Extremes

State Highs State Lows

Community

WunderPhotos

Upload Photos

1,779,367 photos uploaded!

WunderBlogs® & News

Nearby

Air Quality

  Air Quality AQ Index Pollutant
Not available.

Snow Depth

Station Depth Elevation

Earthquake Activity

City Distance Mag. Time & Date
Minimum magnitude displayed is 2.5.

Coastal Water Temperatures

Place Temperature

Nearby Weather Stations